Airfield :
LOGIN :

Register | Disclaimer

   EN    FR    IT 

 










Legend :    VFR   Marginal VFR   IFR   Intensive IFR   Very Intensive IFR
Visi :
Ceiling :
>= 8 km
>= 3000ft
5 to 8 km
1000 to 3000 ft
1500m to 5 km
500 to 1000 ft
800 to 1500m
200 to 500 ft
< 800m
< 200 ft
Symbols :   Thunderstorms  Fog  Heavy snow  Heavy precipitations  Wind > 20 kt
SIGMETs :     Misc.  Thunderstorms  Icing  Turbulence  Mountain Waves  Volcanic Ashes







- Airport Elevation : 38 ft
- IATA code : TRE
- Download approach charts


EGPU - Tiree

CURRENT METAR :
  • 172350Z AUTO 23017KT 8000 FEW029/// 14/12 Q1008

EXPIRED METARs :
  • 172320Z AUTO 23018KT 200V260 8000 BKN031/// 14/12 Q1008
  • 172250Z AUTO 23016KT 8000 SCT031/// 14/12 Q1008
  • 172220Z AUTO 23017KT 210V270 8000 FEW016/// BKN024/// 14/12 Q1008
  • 172150Z AUTO 24015KT 210V270 9000 FEW020/// BKN032/// 14/12 Q1008
  • 172120Z AUTO 23018KT 200V260 9000 BKN032/// 14/12 Q1008

Expired Forecast.
No reported NOTAMs for that airfield.
1 SIGMET reported for the Scottish FIR (EGPX) :
 
Severe mountain waves
EGPX SIGMET 03 VALID 172330/180330 EGRR
EGPX SCOTTISH FIR SEV MTW FCST WI N5500 E00000 - N5500 W00530 - N5355 W00530 - N5427 W00803 - N5520 W00655 - N5833 W00438 - N5840 W00124 - N5500 E00000 FL040/160 STNR NC=



MET'MAP, your aeronautical weather chart ! - Copyright ORBIFLY December 2007 - Disclaimer

ORBIFLY MET'MAP TEAM :

Programming & Development : Alexandra Zaïnal
Concept & Development : Baudouin d'Aumeries
Co-Development & Prog : Marc-Olivier Méhu
Technical & hardware support : Manuel Goepfert

Contact : metmap@orbifly.com




SOURCES & CREDITS :

   NOAA